sensor_id;sensor_type;location;lat;lon;timestamp;temperature;humidity
43647;DHT22;56152;49.996;18.980;2023-08-21T00:00:07;20.20;92.60
43647;DHT22;56152;49.996;18.980;2023-08-21T00:05:12;20.10;92.80
43647;DHT22;56152;49.996;18.980;2023-08-21T00:10:16;20.10;93.00
43647;DHT22;56152;49.996;18.980;2023-08-21T00:15:18;20.10;93.30
43647;DHT22;56152;49.996;18.980;2023-08-21T00:20:22;20.10;93.30
43647;DHT22;56152;49.996;18.980;2023-08-21T00:25:25;20.10;93.30
43647;DHT22;56152;49.996;18.980;2023-08-21T00:30:27;20.10;93.30
43647;DHT22;56152;49.996;18.980;2023-08-21T00:35:31;20.10;93.20
43647;DHT22;56152;49.996;18.980;2023-08-21T00:40:33;20.10;93.10
43647;DHT22;56152;49.996;18.980;2023-08-21T00:45:35;20.10;93.10
43647;DHT22;56152;49.996;18.980;2023-08-21T00:50:40;20.10;93.20
43647;DHT22;56152;49.996;18.980;2023-08-21T00:55:43;20.00;93.40
43647;DHT22;56152;49.996;18.980;2023-08-21T01:00:46;19.90;93.40
43647;DHT22;56152;49.996;18.980;2023-08-21T01:05:52;19.90;93.40
43647;DHT22;56152;49.996;18.980;2023-08-21T01:11:02;19.80;93.40
43647;DHT22;56152;49.996;18.980;2023-08-21T01:16:07;19.80;93.40
43647;DHT22;56152;49.996;18.980;2023-08-21T01:21:11;19.70;93.40
43647;DHT22;56152;49.996;18.980;2023-08-21T01:26:15;19.70;93.50
43647;DHT22;56152;49.996;18.980;2023-08-21T01:31:24;19.70;93.40
43647;DHT22;56152;49.996;18.980;2023-08-21T01:36:31;19.60;93.50
43647;DHT22;56152;49.996;18.980;2023-08-21T01:41:35;19.50;93.60
43647;DHT22;56152;49.996;18.980;2023-08-21T01:46:36;19.50;93.70
43647;DHT22;56152;49.996;18.980;2023-08-21T01:51:39;19.40;93.80
43647;DHT22;56152;49.996;18.980;2023-08-21T01:56:44;19.40;93.90
43647;DHT22;56152;49.996;18.980;2023-08-21T02:01:46;19.30;93.90
43647;DHT22;56152;49.996;18.980;2023-08-21T02:06:48;19.30;93.90
43647;DHT22;56152;49.996;18.980;2023-08-21T02:11:52;19.30;93.90
43647;DHT22;56152;49.996;18.980;2023-08-21T02:16:54;19.30;93.90
43647;DHT22;56152;49.996;18.980;2023-08-21T02:21:57;19.30;94.10
43647;DHT22;56152;49.996;18.980;2023-08-21T02:27:02;19.10;94.30
43647;DHT22;56152;49.996;18.980;2023-08-21T02:32:05;19.20;94.50
43647;DHT22;56152;49.996;18.980;2023-08-21T02:37:06;19.10;94.40
43647;DHT22;56152;49.996;18.980;2023-08-21T02:42:11;19.20;94.30
43647;DHT22;56152;49.996;18.980;2023-08-21T02:47:15;19.10;94.40
43647;DHT22;56152;49.996;18.980;2023-08-21T02:52:17;19.00;94.50
43647;DHT22;56152;49.996;18.980;2023-08-21T02:57:21;18.90;94.80
43647;DHT22;56152;49.996;18.980;2023-08-21T03:02:23;18.90;94.70
43647;DHT22;56152;49.996;18.980;2023-08-21T03:07:25;18.90;94.80
43647;DHT22;56152;49.996;18.980;2023-08-21T03:12:29;18.90;94.90
43647;DHT22;56152;49.996;18.980;2023-08-21T03:17:31;18.80;94.70
43647;DHT22;56152;49.996;18.980;2023-08-21T03:22:33;18.60;94.70
43647;DHT22;56152;49.996;18.980;2023-08-21T03:27:37;18.60;94.80
43647;DHT22;56152;49.996;18.980;2023-08-21T03:32:45;18.50;94.80
43647;DHT22;56152;49.996;18.980;2023-08-21T03:37:51;18.50;94.90
43647;DHT22;56152;49.996;18.980;2023-08-21T03:42:57;18.40;94.80
43647;DHT22;56152;49.996;18.980;2023-08-21T03:47:59;18.40;94.90
43647;DHT22;56152;49.996;18.980;2023-08-21T03:53:02;18.40;94.90
43647;DHT22;56152;49.996;18.980;2023-08-21T03:58:13;18.40;94.80
43647;DHT22;56152;49.996;18.980;2023-08-21T04:03:16;18.30;94.80
43647;DHT22;56152;49.996;18.980;2023-08-21T04:08:20;18.40;94.80
43647;DHT22;56152;49.996;18.980;2023-08-21T04:13:24;18.50;94.80
43647;DHT22;56152;49.996;18.980;2023-08-21T04:18:27;18.60;94.80
43647;DHT22;56152;49.996;18.980;2023-08-21T04:23:29;18.60;94.80
43647;DHT22;56152;49.996;18.980;2023-08-21T04:28:36;18.70;94.60
43647;DHT22;56152;49.996;18.980;2023-08-21T04:33:38;18.90;94.60
43647;DHT22;56152;49.996;18.980;2023-08-21T04:38:40;19.20;94.60
43647;DHT22;56152;49.996;18.980;2023-08-21T04:43:47;19.50;94.70
43647;DHT22;56152;49.996;18.980;2023-08-21T04:48:51;19.80;94.50
43647;DHT22;56152;49.996;18.980;2023-08-21T04:54:08;20.00;94.70
43647;DHT22;56152;49.996;18.980;2023-08-21T04:59:15;20.20;94.10
43647;DHT22;56152;49.996;18.980;2023-08-21T05:04:18;20.20;94.30
43647;DHT22;56152;49.996;18.980;2023-08-21T05:09:20;20.30;94.30
43647;DHT22;56152;49.996;18.980;2023-08-21T05:14:24;20.50;94.20
43647;DHT22;56152;49.996;18.980;2023-08-21T05:19:26;20.80;94.20
43647;DHT22;56152;49.996;18.980;2023-08-21T05:24:29;21.20;93.80
43647;DHT22;56152;49.996;18.980;2023-08-21T05:29:35;21.70;93.40
43647;DHT22;56152;49.996;18.980;2023-08-21T05:34:38;22.10;93.20
43647;DHT22;56152;49.996;18.980;2023-08-21T05:39:40;22.40;92.70
43647;DHT22;56152;49.996;18.980;2023-08-21T05:44:44;22.60;92.40
43647;DHT22;56152;49.996;18.980;2023-08-21T05:49:46;22.60;92.50
43647;DHT22;56152;49.996;18.980;2023-08-21T05:54:49;22.80;92.50
43647;DHT22;56152;49.996;18.980;2023-08-21T05:59:53;23.10;92.00
43647;DHT22;56152;49.996;18.980;2023-08-21T06:04:55;23.50;91.60
43647;DHT22;56152;49.996;18.980;2023-08-21T06:09:58;23.90;91.10
43647;DHT22;56152;49.996;18.980;2023-08-21T06:15:03;24.20;90.70
43647;DHT22;56152;49.996;18.980;2023-08-21T06:20:07;24.30;90.50
43647;DHT22;56152;49.996;18.980;2023-08-21T06:25:10;24.80;90.10
43647;DHT22;56152;49.996;18.980;2023-08-21T06:30:14;25.20;89.10
43647;DHT22;56152;49.996;18.980;2023-08-21T06:35:24;25.30;88.60
43647;DHT22;56152;49.996;18.980;2023-08-21T06:40:26;25.30;88.20
43647;DHT22;56152;49.996;18.980;2023-08-21T06:45:30;25.10;88.20
43647;DHT22;56152;49.996;18.980;2023-08-21T06:50:32;25.20;87.80
43647;DHT22;56152;49.996;18.980;2023-08-21T06:55:34;25.10;88.00
43647;DHT22;56152;49.996;18.980;2023-08-21T07:00:39;24.90;88.30
43647;DHT22;56152;49.996;18.980;2023-08-21T07:05:46;24.80;88.70
43647;DHT22;56152;49.996;18.980;2023-08-21T07:10:51;24.80;88.80
43647;DHT22;56152;49.996;18.980;2023-08-21T07:16:00;24.90;88.60
43647;DHT22;56152;49.996;18.980;2023-08-21T07:21:09;25.20;87.70
43647;DHT22;56152;49.996;18.980;2023-08-21T07:26:11;25.60;86.20
43647;DHT22;56152;49.996;18.980;2023-08-21T07:31:15;26.20;85.60
43647;DHT22;56152;49.996;18.980;2023-08-21T07:36:22;26.90;83.30
43647;DHT22;56152;49.996;18.980;2023-08-21T07:41:27;27.40;81.80
43647;DHT22;56152;49.996;18.980;2023-08-21T07:46:34;27.90;80.10
43647;DHT22;56152;49.996;18.980;2023-08-21T07:51:36;28.10;79.30
43647;DHT22;56152;49.996;18.980;2023-08-21T07:56:38;28.10;78.70
43647;DHT22;56152;49.996;18.980;2023-08-21T08:01:43;28.00;78.90
43647;DHT22;56152;49.996;18.980;2023-08-21T08:06:46;27.90;79.10
43647;DHT22;56152;49.996;18.980;2023-08-21T08:11:49;27.80;79.60
43647;DHT22;56152;49.996;18.980;2023-08-21T08:16:57;27.80;79.10
43647;DHT22;56152;49.996;18.980;2023-08-21T08:22:05;27.60;79.00
43647;DHT22;56152;49.996;18.980;2023-08-21T08:27:11;27.40;79.20
43647;DHT22;56152;49.996;18.980;2023-08-21T08:32:14;27.60;79.70
43647;DHT22;56152;49.996;18.980;2023-08-21T08:37:16;28.00;77.60
43647;DHT22;56152;49.996;18.980;2023-08-21T08:42:19;28.70;76.00
43647;DHT22;56152;49.996;18.980;2023-08-21T08:47:24;28.80;74.50
43647;DHT22;56152;49.996;18.980;2023-08-21T08:52:27;28.70;74.30
43647;DHT22;56152;49.996;18.980;2023-08-21T08:57:30;28.40;74.80
43647;DHT22;56152;49.996;18.980;2023-08-21T09:02:34;28.60;74.70
43647;DHT22;56152;49.996;18.980;2023-08-21T09:07:39;29.20;73.30
43647;DHT22;56152;49.996;18.980;2023-08-21T09:12:45;29.60;72.50
43647;DHT22;56152;49.996;18.980;2023-08-21T09:17:54;30.00;71.40
43647;DHT22;56152;49.996;18.980;2023-08-21T09:22:56;30.10;70.90
43647;DHT22;56152;49.996;18.980;2023-08-21T09:28:04;30.50;70.30
43647;DHT22;56152;49.996;18.980;2023-08-21T09:33:11;30.60;69.50
43647;DHT22;56152;49.996;18.980;2023-08-21T09:38:14;30.70;68.70
43647;DHT22;56152;49.996;18.980;2023-08-21T09:43:15;30.70;67.90
43647;DHT22;56152;49.996;18.980;2023-08-21T09:48:19;30.70;68.30
43647;DHT22;56152;49.996;18.980;2023-08-21T09:53:24;31.00;67.10
43647;DHT22;56152;49.996;18.980;2023-08-21T09:58:32;31.00;67.10
43647;DHT22;56152;49.996;18.980;2023-08-21T10:03:38;31.00;67.00
43647;DHT22;56152;49.996;18.980;2023-08-21T10:08:48;31.30;67.00
43647;DHT22;56152;49.996;18.980;2023-08-21T10:13:53;31.60;66.60
43647;DHT22;56152;49.996;18.980;2023-08-21T10:19:04;31.60;65.70
43647;DHT22;56152;49.996;18.980;2023-08-21T10:24:09;31.40;64.60
43647;DHT22;56152;49.996;18.980;2023-08-21T10:29:15;30.90;66.90
43647;DHT22;56152;49.996;18.980;2023-08-21T10:34:31;31.30;66.40
43647;DHT22;56152;49.996;18.980;2023-08-21T10:39:34;31.80;65.20
43647;DHT22;56152;49.996;18.980;2023-08-21T10:44:51;31.60;65.00
43647;DHT22;56152;49.996;18.980;2023-08-21T10:50:00;31.00;65.40
43647;DHT22;56152;49.996;18.980;2023-08-21T10:55:02;30.30;66.40
43647;DHT22;56152;49.996;18.980;2023-08-21T11:00:07;30.00;67.40
43647;DHT22;56152;49.996;18.980;2023-08-21T11:05:13;30.20;67.40
43647;DHT22;56152;49.996;18.980;2023-08-21T11:10:17;30.30;66.40
43647;DHT22;56152;49.996;18.980;2023-08-21T11:15:19;30.10;66.80
43647;DHT22;56152;49.996;18.980;2023-08-21T11:20:27;29.70;68.40
43647;DHT22;56152;49.996;18.980;2023-08-21T11:25:29;29.30;68.70
43647;DHT22;56152;49.996;18.980;2023-08-21T11:30:32;29.00;69.70
43647;DHT22;56152;49.996;18.980;2023-08-21T11:35:36;28.90;70.50
43647;DHT22;56152;49.996;18.980;2023-08-21T11:40:38;28.80;71.00
43647;DHT22;56152;49.996;18.980;2023-08-21T11:45:40;28.60;71.20
43647;DHT22;56152;49.996;18.980;2023-08-21T11:50:44;28.60;71.20
43647;DHT22;56152;49.996;18.980;2023-08-21T11:55:51;28.50;71.40
43647;DHT22;56152;49.996;18.980;2023-08-21T12:00:53;28.40;71.40
43647;DHT22;56152;49.996;18.980;2023-08-21T12:05:58;28.30;71.70
43647;DHT22;56152;49.996;18.980;2023-08-21T12:11:00;28.20;72.00
43647;DHT22;56152;49.996;18.980;2023-08-21T12:16:07;28.10;72.70
43647;DHT22;56152;49.996;18.980;2023-08-21T12:21:11;27.80;73.80
43647;DHT22;56152;49.996;18.980;2023-08-21T12:26:13;27.60;75.00
43647;DHT22;56152;49.996;18.980;2023-08-21T12:31:21;27.50;76.00
43647;DHT22;56152;49.996;18.980;2023-08-21T12:36:24;27.40;76.80
43647;DHT22;56152;49.996;18.980;2023-08-21T12:41:28;27.40;77.30
43647;DHT22;56152;49.996;18.980;2023-08-21T12:46:30;27.50;78.10
43647;DHT22;56152;49.996;18.980;2023-08-21T12:51:34;28.10;76.40
43647;DHT22;56152;49.996;18.980;2023-08-21T12:56:36;28.40;74.40
43647;DHT22;56152;49.996;18.980;2023-08-21T13:01:38;28.70;73.40
43647;DHT22;56152;49.996;18.980;2023-08-21T13:06:43;28.90;72.90
43647;DHT22;56152;49.996;18.980;2023-08-21T13:11:46;29.10;72.00
43647;DHT22;56152;49.996;18.980;2023-08-21T13:16:48;29.20;71.70
43647;DHT22;56152;49.996;18.980;2023-08-21T13:21:55;29.30;72.00
43647;DHT22;56152;49.996;18.980;2023-08-21T13:26:57;29.30;70.40
43647;DHT22;56152;49.996;18.980;2023-08-21T13:32:02;29.20;70.30
43647;DHT22;56152;49.996;18.980;2023-08-21T13:37:06;29.20;70.60
43647;DHT22;56152;49.996;18.980;2023-08-21T13:42:10;29.30;70.30
43647;DHT22;56152;49.996;18.980;2023-08-21T13:47:13;29.50;69.70
43647;DHT22;56152;49.996;18.980;2023-08-21T13:52:16;29.40;69.20
43647;DHT22;56152;49.996;18.980;2023-08-21T13:57:25;29.50;69.20
43647;DHT22;56152;49.996;18.980;2023-08-21T14:02:27;29.40;69.10
43647;DHT22;56152;49.996;18.980;2023-08-21T14:07:30;29.40;69.30
43647;DHT22;56152;49.996;18.980;2023-08-21T14:12:38;29.50;69.40
43647;DHT22;56152;49.996;18.980;2023-08-21T14:17:40;29.50;69.30
43647;DHT22;56152;49.996;18.980;2023-08-21T14:22:49;29.50;69.00
43647;DHT22;56152;49.996;18.980;2023-08-21T14:27:52;29.40;69.40
43647;DHT22;56152;49.996;18.980;2023-08-21T14:32:57;29.20;70.20
43647;DHT22;56152;49.996;18.980;2023-08-21T14:38:00;29.20;70.50
43647;DHT22;56152;49.996;18.980;2023-08-21T14:43:04;29.30;70.40
43647;DHT22;56152;49.996;18.980;2023-08-21T14:48:07;29.30;70.70
43647;DHT22;56152;49.996;18.980;2023-08-21T14:53:15;29.30;70.70
43647;DHT22;56152;49.996;18.980;2023-08-21T14:58:17;29.20;70.40
43647;DHT22;56152;49.996;18.980;2023-08-21T15:03:23;29.20;70.70
43647;DHT22;56152;49.996;18.980;2023-08-21T15:08:31;29.20;70.40
43647;DHT22;56152;49.996;18.980;2023-08-21T15:13:33;29.20;70.60
43647;DHT22;56152;49.996;18.980;2023-08-21T15:18:37;29.20;70.60
43647;DHT22;56152;49.996;18.980;2023-08-21T15:23:40;29.10;70.50
43647;DHT22;56152;49.996;18.980;2023-08-21T15:28:42;29.00;70.70
43647;DHT22;56152;49.996;18.980;2023-08-21T15:33:44;28.90;70.90
43647;DHT22;56152;49.996;18.980;2023-08-21T15:38:49;28.80;71.30
43647;DHT22;56152;49.996;18.980;2023-08-21T15:43:51;28.70;71.30
43647;DHT22;56152;49.996;18.980;2023-08-21T15:48:57;28.70;71.90
43647;DHT22;56152;49.996;18.980;2023-08-21T15:54:01;28.60;72.20
43647;DHT22;56152;49.996;18.980;2023-08-21T15:59:03;28.40;72.30
43647;DHT22;56152;49.996;18.980;2023-08-21T16:04:06;28.20;72.70
43647;DHT22;56152;49.996;18.980;2023-08-21T16:09:10;28.10;73.40
43647;DHT22;56152;49.996;18.980;2023-08-21T16:14:13;27.90;73.80
43647;DHT22;56152;49.996;18.980;2023-08-21T16:19:15;27.80;74.20
43647;DHT22;56152;49.996;18.980;2023-08-21T16:24:20;27.70;74.70
43647;DHT22;56152;49.996;18.980;2023-08-21T16:29:22;27.50;74.90
43647;DHT22;56152;49.996;18.980;2023-08-21T16:34:24;27.40;75.60
43647;DHT22;56152;49.996;18.980;2023-08-21T16:39:28;27.10;77.50
43647;DHT22;56152;49.996;18.980;2023-08-21T16:44:30;26.70;79.60
43647;DHT22;56152;49.996;18.980;2023-08-21T16:49:35;26.40;81.00
43647;DHT22;56152;49.996;18.980;2023-08-21T16:54:41;26.10;82.50
43647;DHT22;56152;49.996;18.980;2023-08-21T17:00:06;25.80;84.80
43647;DHT22;56152;49.996;18.980;2023-08-21T17:05:10;25.50;86.20
43647;DHT22;56152;49.996;18.980;2023-08-21T17:10:14;25.40;87.30
43647;DHT22;56152;49.996;18.980;2023-08-21T17:15:20;25.30;87.80
43647;DHT22;56152;49.996;18.980;2023-08-21T17:20:32;25.20;88.70
43647;DHT22;56152;49.996;18.980;2023-08-21T17:25:36;25.10;89.40
43647;DHT22;56152;49.996;18.980;2023-08-21T17:30:43;25.00;90.00
43647;DHT22;56152;49.996;18.980;2023-08-21T17:35:48;25.00;90.20
43647;DHT22;56152;49.996;18.980;2023-08-21T17:40:58;24.90;90.40
43647;DHT22;56152;49.996;18.980;2023-08-21T17:46:06;24.80;90.70
43647;DHT22;56152;49.996;18.980;2023-08-21T17:51:11;24.80;90.70
43647;DHT22;56152;49.996;18.980;2023-08-21T17:56:18;24.70;90.90
43647;DHT22;56152;49.996;18.980;2023-08-21T18:01:22;24.70;91.00
43647;DHT22;56152;49.996;18.980;2023-08-21T18:06:30;24.60;91.20
43647;DHT22;56152;49.996;18.980;2023-08-21T18:11:39;24.50;91.50
43647;DHT22;56152;49.996;18.980;2023-08-21T18:16:47;24.40;92.00
43647;DHT22;56152;49.996;18.980;2023-08-21T18:27:47;24.20;92.40
43647;DHT22;56152;49.996;18.980;2023-08-21T18:38:32;24.00;92.70
43647;DHT22;56152;49.996;18.980;2023-08-21T18:43:36;24.00;92.70
43647;DHT22;56152;49.996;18.980;2023-08-21T18:48:40;23.80;92.70
43647;DHT22;56152;49.996;18.980;2023-08-21T18:53:44;23.70;92.80
43647;DHT22;56152;49.996;18.980;2023-08-21T18:58:47;23.60;92.90
43647;DHT22;56152;49.996;18.980;2023-08-21T19:09:21;23.40;93.20
43647;DHT22;56152;49.996;18.980;2023-08-21T19:14:32;23.30;93.40
43647;DHT22;56152;49.996;18.980;2023-08-21T19:25:33;23.20;93.40
43647;DHT22;56152;49.996;18.980;2023-08-21T19:30:41;23.10;93.70
43647;DHT22;56152;49.996;18.980;2023-08-21T19:53:43;22.90;94.00
43647;DHT22;56152;49.996;18.980;2023-08-21T19:58:45;22.90;94.00
43647;DHT22;56152;49.996;18.980;2023-08-21T20:03:52;22.90;94.10
43647;DHT22;56152;49.996;18.980;2023-08-21T20:09:00;22.80;94.30
43647;DHT22;56152;49.996;18.980;2023-08-21T20:14:11;22.80;94.40
43647;DHT22;56152;49.996;18.980;2023-08-21T20:19:14;22.70;94.30
43647;DHT22;56152;49.996;18.980;2023-08-21T20:24:21;22.70;94.40
43647;DHT22;56152;49.996;18.980;2023-08-21T20:35:24;22.70;94.50
43647;DHT22;56152;49.996;18.980;2023-08-21T20:40:30;22.70;94.50
43647;DHT22;56152;49.996;18.980;2023-08-21T20:45:40;22.50;94.70
43647;DHT22;56152;49.996;18.980;2023-08-21T20:50:42;22.40;95.00
43647;DHT22;56152;49.996;18.980;2023-08-21T20:55:46;22.30;94.90
43647;DHT22;56152;49.996;18.980;2023-08-21T21:00:50;22.20;94.80
43647;DHT22;56152;49.996;18.980;2023-08-21T21:05:52;22.20;94.80
43647;DHT22;56152;49.996;18.980;2023-08-21T21:10:55;22.10;94.90
43647;DHT22;56152;49.996;18.980;2023-08-21T21:15:58;22.20;95.10
43647;DHT22;56152;49.996;18.980;2023-08-21T21:21:18;22.10;95.10
43647;DHT22;56152;49.996;18.980;2023-08-21T21:32:30;22.00;95.20
43647;DHT22;56152;49.996;18.980;2023-08-21T21:37:59;22.00;95.30
43647;DHT22;56152;49.996;18.980;2023-08-21T21:43:02;22.10;95.30
43647;DHT22;56152;49.996;18.980;2023-08-21T21:48:17;22.10;95.30
43647;DHT22;56152;49.996;18.980;2023-08-21T21:53:23;22.00;95.40
43647;DHT22;56152;49.996;18.980;2023-08-21T21:58:26;21.90;95.40
43647;DHT22;56152;49.996;18.980;2023-08-21T22:03:30;21.90;95.50
43647;DHT22;56152;49.996;18.980;2023-08-21T22:08:33;21.90;95.60
43647;DHT22;56152;49.996;18.980;2023-08-21T22:13:36;21.90;95.70
43647;DHT22;56152;49.996;18.980;2023-08-21T22:18:45;21.70;95.80
43647;DHT22;56152;49.996;18.980;2023-08-21T22:23:50;21.50;95.90
43647;DHT22;56152;49.996;18.980;2023-08-21T22:28:52;21.40;96.10
43647;DHT22;56152;49.996;18.980;2023-08-21T22:34:03;21.30;96.10
43647;DHT22;56152;49.996;18.980;2023-08-21T22:39:05;21.20;96.10
43647;DHT22;56152;49.996;18.980;2023-08-21T22:44:07;21.10;96.20
43647;DHT22;56152;49.996;18.980;2023-08-21T22:49:12;21.10;96.20
43647;DHT22;56152;49.996;18.980;2023-08-21T22:54:17;21.10;96.20
43647;DHT22;56152;49.996;18.980;2023-08-21T22:59:35;21.10;96.10
43647;DHT22;56152;49.996;18.980;2023-08-21T23:04:39;21.10;96.10
43647;DHT22;56152;49.996;18.980;2023-08-21T23:09:41;21.20;96.20
43647;DHT22;56152;49.996;18.980;2023-08-21T23:14:44;21.20;96.20
43647;DHT22;56152;49.996;18.980;2023-08-21T23:19:48;21.20;96.30
43647;DHT22;56152;49.996;18.980;2023-08-21T23:24:59;21.10;96.40
43647;DHT22;56152;49.996;18.980;2023-08-21T23:30:02;21.10;96.40
43647;DHT22;56152;49.996;18.980;2023-08-21T23:35:08;21.10;96.50
43647;DHT22;56152;49.996;18.980;2023-08-21T23:40:12;21.00;96.40
43647;DHT22;56152;49.996;18.980;2023-08-21T23:45:17;20.90;96.40
43647;DHT22;56152;49.996;18.980;2023-08-21T23:50:21;20.80;96.40
43647;DHT22;56152;49.996;18.980;2023-08-21T23:55:23;20.80;96.50
